sensor_id;sensor_type;location;lat;lon;timestamp;P1;durP1;ratioP1;P2;durP2;ratioP2
9657;SDS011;4867;48.112;11.622;2022-07-11T00:00:08;3.80;;;1.70;;
9657;SDS011;4867;48.112;11.622;2022-07-11T00:02:37;2.60;;;1.57;;
9657;SDS011;4867;48.112;11.622;2022-07-11T00:05:11;2.80;;;1.70;;
9657;SDS011;4867;48.112;11.622;2022-07-11T00:07:38;1.70;;;1.60;;
9657;SDS011;4867;48.112;11.622;2022-07-11T00:10:06;2.07;;;1.80;;
9657;SDS011;4867;48.112;11.622;2022-07-11T00:12:33;3.37;;;1.80;;
9657;SDS011;4867;48.112;11.622;2022-07-11T00:15:01;2.47;;;1.80;;
9657;SDS011;4867;48.112;11.622;2022-07-11T00:17:55;2.10;;;1.50;;
9657;SDS011;4867;48.112;11.622;2022-07-11T00:20:25;2.90;;;1.80;;
9657;SDS011;4867;48.112;11.622;2022-07-11T00:22:53;3.40;;;1.90;;
9657;SDS011;4867;48.112;11.622;2022-07-11T00:25:20;2.73;;;1.70;;
9657;SDS011;4867;48.112;11.622;2022-07-11T00:27:47;2.90;;;1.77;;
9657;SDS011;4867;48.112;11.622;2022-07-11T00:30:17;2.53;;;1.70;;
9657;SDS011;4867;48.112;11.622;2022-07-11T00:32:45;1.87;;;1.60;;
9657;SDS011;4867;48.112;11.622;2022-07-11T00:35:13;2.00;;;1.43;;
9657;SDS011;4867;48.112;11.622;2022-07-11T00:37:40;2.53;;;1.70;;
9657;SDS011;4867;48.112;11.622;2022-07-11T00:40:07;2.23;;;1.97;;
9657;SDS011;4867;48.112;11.622;2022-07-11T00:42:35;3.23;;;1.90;;
9657;SDS011;4867;48.112;11.622;2022-07-11T00:45:02;1.97;;;1.67;;
9657;SDS011;4867;48.112;11.622;2022-07-11T00:47:29;2.83;;;1.73;;
9657;SDS011;4867;48.112;11.622;2022-07-11T00:49:57;4.47;;;1.70;;
9657;SDS011;4867;48.112;11.622;2022-07-11T00:52:25;2.43;;;1.80;;
9657;SDS011;4867;48.112;11.622;2022-07-11T00:54:54;2.00;;;1.53;;
9657;SDS011;4867;48.112;11.622;2022-07-11T00:57:21;2.27;;;1.57;;
9657;SDS011;4867;48.112;11.622;2022-07-11T00:59:49;2.67;;;1.50;;
9657;SDS011;4867;48.112;11.622;2022-07-11T01:02:16;2.40;;;1.67;;
9657;SDS011;4867;48.112;11.622;2022-07-11T01:04:46;2.37;;;1.60;;
9657;SDS011;4867;48.112;11.622;2022-07-11T01:07:13;1.70;;;1.60;;
9657;SDS011;4867;48.112;11.622;2022-07-11T01:09:41;1.97;;;1.63;;
9657;SDS011;4867;48.112;11.622;2022-07-11T01:12:08;3.43;;;1.73;;
9657;SDS011;4867;48.112;11.622;2022-07-11T01:14:35;2.40;;;1.93;;
9657;SDS011;4867;48.112;11.622;2022-07-11T01:17:03;2.70;;;1.80;;
9657;SDS011;4867;48.112;11.622;2022-07-11T01:19:30;3.50;;;1.70;;
9657;SDS011;4867;48.112;11.622;2022-07-11T01:21:58;3.27;;;1.63;;
9657;SDS011;4867;48.112;11.622;2022-07-11T01:24:26;3.20;;;1.80;;
9657;SDS011;4867;48.112;11.622;2022-07-11T01:26:54;2.70;;;1.60;;
9657;SDS011;4867;48.112;11.622;2022-07-11T01:29:21;3.30;;;1.83;;
9657;SDS011;4867;48.112;11.622;2022-07-11T01:31:50;3.93;;;1.80;;
9657;SDS011;4867;48.112;11.622;2022-07-11T01:34:17;3.33;;;1.90;;
9657;SDS011;4867;48.112;11.622;2022-07-11T01:36:44;4.63;;;1.70;;
9657;SDS011;4867;48.112;11.622;2022-07-11T01:39:10;3.47;;;1.70;;
9657;SDS011;4867;48.112;11.622;2022-07-11T01:41:37;2.70;;;1.87;;
9657;SDS011;4867;48.112;11.622;2022-07-11T01:44:04;2.27;;;1.80;;
9657;SDS011;4867;48.112;11.622;2022-07-11T01:46:32;3.27;;;1.67;;
9657;SDS011;4867;48.112;11.622;2022-07-11T01:48:59;3.60;;;1.83;;
9657;SDS011;4867;48.112;11.622;2022-07-11T01:51:27;2.20;;;1.50;;
9657;SDS011;4867;48.112;11.622;2022-07-11T01:53:54;2.40;;;1.70;;
9657;SDS011;4867;48.112;11.622;2022-07-11T01:56:22;2.03;;;1.60;;
9657;SDS011;4867;48.112;11.622;2022-07-11T01:58:57;1.90;;;1.70;;
9657;SDS011;4867;48.112;11.622;2022-07-11T02:01:24;2.30;;;1.70;;
9657;SDS011;4867;48.112;11.622;2022-07-11T02:03:53;2.10;;;1.60;;
9657;SDS011;4867;48.112;11.622;2022-07-11T02:06:21;2.50;;;1.80;;
9657;SDS011;4867;48.112;11.622;2022-07-11T02:08:48;2.17;;;1.63;;
9657;SDS011;4867;48.112;11.622;2022-07-11T02:11:15;2.97;;;1.70;;
9657;SDS011;4867;48.112;11.622;2022-07-11T02:13:42;3.00;;;1.70;;
9657;SDS011;4867;48.112;11.622;2022-07-11T02:16:10;2.40;;;1.80;;
9657;SDS011;4867;48.112;11.622;2022-07-11T02:18:38;2.00;;;1.77;;
9657;SDS011;4867;48.112;11.622;2022-07-11T02:21:09;2.40;;;1.70;;
9657;SDS011;4867;48.112;11.622;2022-07-11T02:23:38;2.83;;;1.90;;
9657;SDS011;4867;48.112;11.622;2022-07-11T02:26:08;4.20;;;1.70;;
9657;SDS011;4867;48.112;11.622;2022-07-11T02:28:35;2.60;;;1.90;;
9657;SDS011;4867;48.112;11.622;2022-07-11T02:31:03;3.50;;;1.87;;
9657;SDS011;4867;48.112;11.622;2022-07-11T02:33:30;7.33;;;2.07;;
9657;SDS011;4867;48.112;11.622;2022-07-11T02:35:57;2.60;;;1.70;;
9657;SDS011;4867;48.112;11.622;2022-07-11T02:38:24;2.47;;;1.90;;
9657;SDS011;4867;48.112;11.622;2022-07-11T02:40:53;3.10;;;1.93;;
9657;SDS011;4867;48.112;11.622;2022-07-11T02:43:20;2.83;;;2.10;;
9657;SDS011;4867;48.112;11.622;2022-07-11T02:45:47;3.27;;;2.23;;
9657;SDS011;4867;48.112;11.622;2022-07-11T02:48:14;3.13;;;1.90;;
9657;SDS011;4867;48.112;11.622;2022-07-11T02:50:41;3.07;;;1.90;;
9657;SDS011;4867;48.112;11.622;2022-07-11T02:53:08;3.43;;;1.90;;
9657;SDS011;4867;48.112;11.622;2022-07-11T02:55:36;3.67;;;2.00;;
9657;SDS011;4867;48.112;11.622;2022-07-11T02:58:03;2.00;;;1.70;;
9657;SDS011;4867;48.112;11.622;2022-07-11T03:00:30;3.73;;;2.00;;
9657;SDS011;4867;48.112;11.622;2022-07-11T03:02:58;3.23;;;1.73;;
9657;SDS011;4867;48.112;11.622;2022-07-11T03:05:25;2.93;;;1.97;;
9657;SDS011;4867;48.112;11.622;2022-07-11T03:07:52;3.13;;;1.77;;
9657;SDS011;4867;48.112;11.622;2022-07-11T03:10:19;3.93;;;2.10;;
9657;SDS011;4867;48.112;11.622;2022-07-11T03:12:46;3.20;;;1.60;;
9657;SDS011;4867;48.112;11.622;2022-07-11T03:15:14;3.33;;;2.10;;
9657;SDS011;4867;48.112;11.622;2022-07-11T03:17:41;3.60;;;2.03;;
9657;SDS011;4867;48.112;11.622;2022-07-11T03:20:08;2.53;;;1.80;;
9657;SDS011;4867;48.112;11.622;2022-07-11T03:22:35;5.30;;;2.10;;
9657;SDS011;4867;48.112;11.622;2022-07-11T03:25:03;3.60;;;2.30;;
9657;SDS011;4867;48.112;11.622;2022-07-11T03:27:32;1.87;;;1.70;;
9657;SDS011;4867;48.112;11.622;2022-07-11T03:30:00;3.67;;;2.20;;
9657;SDS011;4867;48.112;11.622;2022-07-11T03:32:30;3.07;;;1.90;;
9657;SDS011;4867;48.112;11.622;2022-07-11T03:34:57;4.93;;;2.10;;
9657;SDS011;4867;48.112;11.622;2022-07-11T03:37:42;4.30;;;2.20;;
9657;SDS011;4867;48.112;11.622;2022-07-11T03:40:09;2.67;;;1.93;;
9657;SDS011;4867;48.112;11.622;2022-07-11T03:42:37;2.23;;;1.80;;
9657;SDS011;4867;48.112;11.622;2022-07-11T03:45:04;3.10;;;1.90;;
9657;SDS011;4867;48.112;11.622;2022-07-11T03:47:32;2.93;;;1.90;;
9657;SDS011;4867;48.112;11.622;2022-07-11T03:49:59;3.17;;;1.90;;
9657;SDS011;4867;48.112;11.622;2022-07-11T03:52:27;2.23;;;2.00;;
9657;SDS011;4867;48.112;11.622;2022-07-11T03:54:54;2.97;;;2.00;;
9657;SDS011;4867;48.112;11.622;2022-07-11T03:57:24;4.20;;;2.20;;
9657;SDS011;4867;48.112;11.622;2022-07-11T03:59:50;4.83;;;2.10;;
9657;SDS011;4867;48.112;11.622;2022-07-11T04:02:17;3.10;;;2.10;;
9657;SDS011;4867;48.112;11.622;2022-07-11T04:04:44;5.37;;;2.23;;
9657;SDS011;4867;48.112;11.622;2022-07-11T04:07:13;2.33;;;1.80;;
9657;SDS011;4867;48.112;11.622;2022-07-11T04:09:40;2.87;;;1.90;;
9657;SDS011;4867;48.112;11.622;2022-07-11T04:12:07;4.50;;;1.83;;
9657;SDS011;4867;48.112;11.622;2022-07-11T04:14:35;3.97;;;2.00;;
9657;SDS011;4867;48.112;11.622;2022-07-11T04:17:03;2.13;;;1.63;;
9657;SDS011;4867;48.112;11.622;2022-07-11T04:19:31;3.27;;;1.67;;
9657;SDS011;4867;48.112;11.622;2022-07-11T04:21:58;2.80;;;1.80;;
9657;SDS011;4867;48.112;11.622;2022-07-11T04:24:25;3.27;;;1.80;;
9657;SDS011;4867;48.112;11.622;2022-07-11T04:26:52;2.60;;;1.70;;
9657;SDS011;4867;48.112;11.622;2022-07-11T04:29:21;2.50;;;1.70;;
9657;SDS011;4867;48.112;11.622;2022-07-11T04:31:50;2.90;;;1.97;;
9657;SDS011;4867;48.112;11.622;2022-07-11T04:34:17;3.07;;;1.90;;
9657;SDS011;4867;48.112;11.622;2022-07-11T04:36:45;2.87;;;1.60;;
9657;SDS011;4867;48.112;11.622;2022-07-11T04:39:13;2.47;;;1.70;;
9657;SDS011;4867;48.112;11.622;2022-07-11T04:41:40;2.07;;;1.67;;
9657;SDS011;4867;48.112;11.622;2022-07-11T04:44:07;2.70;;;1.60;;
9657;SDS011;4867;48.112;11.622;2022-07-11T04:46:34;5.27;;;1.80;;
9657;SDS011;4867;48.112;11.622;2022-07-11T04:49:01;3.50;;;1.57;;
9657;SDS011;4867;48.112;11.622;2022-07-11T04:51:29;3.47;;;1.43;;
9657;SDS011;4867;48.112;11.622;2022-07-11T04:53:58;2.33;;;1.63;;
9657;SDS011;4867;48.112;11.622;2022-07-11T04:56:24;3.63;;;1.80;;
9657;SDS011;4867;48.112;11.622;2022-07-11T04:58:51;5.97;;;1.67;;
9657;SDS011;4867;48.112;11.622;2022-07-11T05:01:19;2.60;;;1.50;;
9657;SDS011;4867;48.112;11.622;2022-07-11T05:03:46;4.57;;;1.63;;
9657;SDS011;4867;48.112;11.622;2022-07-11T05:06:13;2.27;;;1.63;;
9657;SDS011;4867;48.112;11.622;2022-07-11T05:08:40;3.17;;;1.70;;
9657;SDS011;4867;48.112;11.622;2022-07-11T05:11:07;2.83;;;1.50;;
9657;SDS011;4867;48.112;11.622;2022-07-11T05:13:34;1.90;;;1.50;;
9657;SDS011;4867;48.112;11.622;2022-07-11T05:16:02;3.00;;;1.63;;
9657;SDS011;4867;48.112;11.622;2022-07-11T05:18:29;3.63;;;1.70;;
9657;SDS011;4867;48.112;11.622;2022-07-11T05:20:57;3.70;;;1.70;;
9657;SDS011;4867;48.112;11.622;2022-07-11T05:23:24;4.03;;;1.90;;
9657;SDS011;4867;48.112;11.622;2022-07-11T05:25:51;3.00;;;1.60;;
9657;SDS011;4867;48.112;11.622;2022-07-11T05:28:18;2.60;;;1.53;;
9657;SDS011;4867;48.112;11.622;2022-07-11T05:30:46;3.47;;;1.80;;
9657;SDS011;4867;48.112;11.622;2022-07-11T05:33:13;6.10;;;1.70;;
9657;SDS011;4867;48.112;11.622;2022-07-11T05:35:39;3.03;;;1.57;;
9657;SDS011;4867;48.112;11.622;2022-07-11T05:38:06;4.00;;;1.40;;
9657;SDS011;4867;48.112;11.622;2022-07-11T05:40:33;2.97;;;1.80;;
9657;SDS011;4867;48.112;11.622;2022-07-11T05:43:00;4.20;;;1.90;;
9657;SDS011;4867;48.112;11.622;2022-07-11T05:45:27;2.23;;;1.50;;
9657;SDS011;4867;48.112;11.622;2022-07-11T05:47:54;2.30;;;1.60;;
9657;SDS011;4867;48.112;11.622;2022-07-11T05:50:21;4.60;;;1.80;;
9657;SDS011;4867;48.112;11.622;2022-07-11T05:52:48;2.63;;;1.83;;
9657;SDS011;4867;48.112;11.622;2022-07-11T05:55:14;4.00;;;1.70;;
9657;SDS011;4867;48.112;11.622;2022-07-11T05:57:44;6.17;;;2.07;;
9657;SDS011;4867;48.112;11.622;2022-07-11T06:00:11;3.67;;;1.87;;
9657;SDS011;4867;48.112;11.622;2022-07-11T06:02:39;5.20;;;1.70;;
9657;SDS011;4867;48.112;11.622;2022-07-11T06:05:06;5.00;;;1.90;;
9657;SDS011;4867;48.112;11.622;2022-07-11T06:07:33;3.63;;;1.60;;
9657;SDS011;4867;48.112;11.622;2022-07-11T06:10:25;5.03;;;1.90;;
9657;SDS011;4867;48.112;11.622;2022-07-11T06:12:52;5.07;;;1.60;;
9657;SDS011;4867;48.112;11.622;2022-07-11T06:15:19;3.60;;;1.40;;
9657;SDS011;4867;48.112;11.622;2022-07-11T06:17:46;4.27;;;1.70;;
9657;SDS011;4867;48.112;11.622;2022-07-11T06:20:13;3.23;;;1.57;;
9657;SDS011;4867;48.112;11.622;2022-07-11T06:22:40;3.87;;;1.50;;
9657;SDS011;4867;48.112;11.622;2022-07-11T06:25:07;3.27;;;1.53;;
9657;SDS011;4867;48.112;11.622;2022-07-11T06:27:35;4.33;;;1.70;;
9657;SDS011;4867;48.112;11.622;2022-07-11T06:30:03;4.27;;;1.70;;
9657;SDS011;4867;48.112;11.622;2022-07-11T06:32:29;3.07;;;1.60;;
9657;SDS011;4867;48.112;11.622;2022-07-11T06:34:57;3.27;;;1.67;;
9657;SDS011;4867;48.112;11.622;2022-07-11T06:37:24;5.87;;;1.70;;
9657;SDS011;4867;48.112;11.622;2022-07-11T06:39:51;4.30;;;1.93;;
9657;SDS011;4867;48.112;11.622;2022-07-11T06:42:18;5.83;;;1.60;;
9657;SDS011;4867;48.112;11.622;2022-07-11T06:44:53;3.80;;;1.70;;
9657;SDS011;4867;48.112;11.622;2022-07-11T06:47:21;5.67;;;1.70;;
9657;SDS011;4867;48.112;11.622;2022-07-11T06:49:47;2.50;;;1.40;;
9657;SDS011;4867;48.112;11.622;2022-07-11T06:52:14;3.20;;;1.50;;
9657;SDS011;4867;48.112;11.622;2022-07-11T06:54:41;3.20;;;1.50;;
9657;SDS011;4867;48.112;11.622;2022-07-11T06:57:08;2.73;;;1.43;;
9657;SDS011;4867;48.112;11.622;2022-07-11T06:59:38;2.07;;;1.20;;
9657;SDS011;4867;48.112;11.622;2022-07-11T07:02:05;2.50;;;1.30;;
9657;SDS011;4867;48.112;11.622;2022-07-11T07:04:32;3.67;;;1.57;;
9657;SDS011;4867;48.112;11.622;2022-07-11T07:07:00;2.87;;;1.30;;
9657;SDS011;4867;48.112;11.622;2022-07-11T07:09:28;3.50;;;1.60;;
9657;SDS011;4867;48.112;11.622;2022-07-11T07:11:55;2.47;;;1.47;;
9657;SDS011;4867;48.112;11.622;2022-07-11T07:14:22;3.40;;;1.50;;
9657;SDS011;4867;48.112;11.622;2022-07-11T07:16:49;4.83;;;1.50;;
9657;SDS011;4867;48.112;11.622;2022-07-11T07:19:16;3.00;;;1.40;;
9657;SDS011;4867;48.112;11.622;2022-07-11T07:21:43;3.03;;;1.50;;
9657;SDS011;4867;48.112;11.622;2022-07-11T07:24:10;4.03;;;1.30;;
9657;SDS011;4867;48.112;11.622;2022-07-11T07:26:42;1.87;;;1.20;;
9657;SDS011;4867;48.112;11.622;2022-07-11T07:29:09;2.83;;;1.30;;
9657;SDS011;4867;48.112;11.622;2022-07-11T07:31:36;2.63;;;1.30;;
9657;SDS011;4867;48.112;11.622;2022-07-11T07:34:03;2.40;;;1.20;;
9657;SDS011;4867;48.112;11.622;2022-07-11T07:36:31;2.40;;;1.30;;
9657;SDS011;4867;48.112;11.622;2022-07-11T07:38:58;3.77;;;1.70;;
9657;SDS011;4867;48.112;11.622;2022-07-11T07:41:24;4.27;;;1.27;;
9657;SDS011;4867;48.112;11.622;2022-07-11T07:43:51;2.87;;;1.30;;
9657;SDS011;4867;48.112;11.622;2022-07-11T07:46:18;2.40;;;1.67;;
9657;SDS011;4867;48.112;11.622;2022-07-11T07:48:46;3.23;;;2.73;;
9657;SDS011;4867;48.112;11.622;2022-07-11T07:51:13;3.57;;;1.33;;
9657;SDS011;4867;48.112;11.622;2022-07-11T07:53:40;2.73;;;1.40;;
9657;SDS011;4867;48.112;11.622;2022-07-11T07:56:07;2.67;;;1.53;;
9657;SDS011;4867;48.112;11.622;2022-07-11T07:58:34;2.20;;;1.27;;
9657;SDS011;4867;48.112;11.622;2022-07-11T08:01:01;2.53;;;1.37;;
9657;SDS011;4867;48.112;11.622;2022-07-11T08:03:46;1.93;;;1.40;;
9657;SDS011;4867;48.112;11.622;2022-07-11T08:06:13;2.27;;;1.40;;
9657;SDS011;4867;48.112;11.622;2022-07-11T08:08:40;2.77;;;1.37;;
9657;SDS011;4867;48.112;11.622;2022-07-11T08:11:07;1.87;;;1.23;;
9657;SDS011;4867;48.112;11.622;2022-07-11T08:13:54;6.03;;;1.73;;
9657;SDS011;4867;48.112;11.622;2022-07-11T08:16:21;4.30;;;1.73;;
9657;SDS011;4867;48.112;11.622;2022-07-11T08:18:48;4.23;;;1.63;;
9657;SDS011;4867;48.112;11.622;2022-07-11T08:21:15;3.93;;;1.70;;
9657;SDS011;4867;48.112;11.622;2022-07-11T08:23:42;4.43;;;1.50;;
9657;SDS011;4867;48.112;11.622;2022-07-11T08:26:09;4.90;;;1.73;;
9657;SDS011;4867;48.112;11.622;2022-07-11T08:28:36;7.97;;;1.73;;
9657;SDS011;4867;48.112;11.622;2022-07-11T08:31:03;4.13;;;1.90;;
9657;SDS011;4867;48.112;11.622;2022-07-11T08:33:30;2.27;;;1.60;;
9657;SDS011;4867;48.112;11.622;2022-07-11T08:35:57;4.67;;;1.70;;
9657;SDS011;4867;48.112;11.622;2022-07-11T08:38:24;5.27;;;1.73;;
9657;SDS011;4867;48.112;11.622;2022-07-11T08:40:51;5.10;;;1.47;;
9657;SDS011;4867;48.112;11.622;2022-07-11T08:43:21;3.20;;;1.60;;
9657;SDS011;4867;48.112;11.622;2022-07-11T08:45:49;2.97;;;1.70;;
9657;SDS011;4867;48.112;11.622;2022-07-11T08:48:18;2.63;;;1.70;;
9657;SDS011;4867;48.112;11.622;2022-07-11T08:50:46;4.67;;;1.83;;
9657;SDS011;4867;48.112;11.622;2022-07-11T08:53:15;2.20;;;1.50;;
9657;SDS011;4867;48.112;11.622;2022-07-11T08:55:42;2.30;;;1.10;;
9657;SDS011;4867;48.112;11.622;2022-07-11T08:58:09;2.03;;;1.20;;
9657;SDS011;4867;48.112;11.622;2022-07-11T09:00:36;2.57;;;1.40;;
9657;SDS011;4867;48.112;11.622;2022-07-11T09:03:03;2.47;;;1.30;;
9657;SDS011;4867;48.112;11.622;2022-07-11T09:05:32;2.70;;;1.20;;
9657;SDS011;4867;48.112;11.622;2022-07-11T09:07:59;2.73;;;1.50;;
9657;SDS011;4867;48.112;11.622;2022-07-11T09:10:26;3.03;;;1.20;;
9657;SDS011;4867;48.112;11.622;2022-07-11T09:15:31;3.60;;;1.50;;
9657;SDS011;4867;48.112;11.622;2022-07-11T09:17:58;1.40;;;1.30;;
9657;SDS011;4867;48.112;11.622;2022-07-11T09:20:25;1.27;;;1.00;;
9657;SDS011;4867;48.112;11.622;2022-07-11T09:23:22;1.93;;;1.10;;
9657;SDS011;4867;48.112;11.622;2022-07-11T09:26:07;2.10;;;1.60;;
9657;SDS011;4867;48.112;11.622;2022-07-11T09:28:34;2.83;;;1.23;;
9657;SDS011;4867;48.112;11.622;2022-07-11T09:31:14;2.63;;;1.40;;
9657;SDS011;4867;48.112;11.622;2022-07-11T09:34:01;2.90;;;1.30;;
9657;SDS011;4867;48.112;11.622;2022-07-11T09:36:35;1.93;;;1.33;;
9657;SDS011;4867;48.112;11.622;2022-07-11T09:39:06;1.97;;;1.00;;
9657;SDS011;4867;48.112;11.622;2022-07-11T09:41:35;1.43;;;1.00;;
9657;SDS011;4867;48.112;11.622;2022-07-11T09:46:33;2.03;;;1.20;;
9657;SDS011;4867;48.112;11.622;2022-07-11T09:49:03;1.93;;;1.30;;
9657;SDS011;4867;48.112;11.622;2022-07-11T09:51:31;1.20;;;1.00;;
9657;SDS011;4867;48.112;11.622;2022-07-11T09:53:59;0.90;;;0.90;;
9657;SDS011;4867;48.112;11.622;2022-07-11T09:59:25;1.47;;;1.10;;
9657;SDS011;4867;48.112;11.622;2022-07-11T10:01:51;1.73;;;1.10;;
9657;SDS011;4867;48.112;11.622;2022-07-11T10:04:18;1.10;;;1.00;;
9657;SDS011;4867;48.112;11.622;2022-07-11T10:06:46;2.10;;;0.90;;
9657;SDS011;4867;48.112;11.622;2022-07-11T10:09:13;2.50;;;0.80;;
9657;SDS011;4867;48.112;11.622;2022-07-11T10:11:40;1.93;;;0.90;;
9657;SDS011;4867;48.112;11.622;2022-07-11T10:14:07;0.70;;;0.70;;
9657;SDS011;4867;48.112;11.622;2022-07-11T10:19:16;1.37;;;0.90;;
9657;SDS011;4867;48.112;11.622;2022-07-11T10:21:47;0.90;;;0.80;;
9657;SDS011;4867;48.112;11.622;2022-07-11T10:30:07;1.00;;;0.80;;
9657;SDS011;4867;48.112;11.622;2022-07-11T10:35:23;0.80;;;0.80;;
9657;SDS011;4867;48.112;11.622;2022-07-11T10:37:54;0.80;;;0.80;;
9657;SDS011;4867;48.112;11.622;2022-07-11T10:43:07;0.80;;;0.80;;
9657;SDS011;4867;48.112;11.622;2022-07-11T10:48:19;1.47;;;0.90;;
9657;SDS011;4867;48.112;11.622;2022-07-11T10:50:47;1.07;;;0.90;;
9657;SDS011;4867;48.112;11.622;2022-07-11T10:53:22;1.33;;;0.90;;
9657;SDS011;4867;48.112;11.622;2022-07-11T10:58:32;1.10;;;1.00;;
9657;SDS011;4867;48.112;11.622;2022-07-11T11:01:08;1.10;;;1.00;;
9657;SDS011;4867;48.112;11.622;2022-07-11T11:03:40;0.97;;;0.97;;
9657;SDS011;4867;48.112;11.622;2022-07-11T11:06:09;2.00;;;0.97;;
9657;SDS011;4867;48.112;11.622;2022-07-11T11:13:35;0.70;;;0.70;;
9657;SDS011;4867;48.112;11.622;2022-07-11T11:16:17;0.80;;;0.80;;
9657;SDS011;4867;48.112;11.622;2022-07-11T11:18:45;0.83;;;0.83;;
9657;SDS011;4867;48.112;11.622;2022-07-11T11:21:13;0.80;;;0.80;;
9657;SDS011;4867;48.112;11.622;2022-07-11T11:29:28;1.00;;;1.00;;
9657;SDS011;4867;48.112;11.622;2022-07-11T11:31:57;0.90;;;0.90;;
9657;SDS011;4867;48.112;11.622;2022-07-11T11:34:26;1.63;;;0.90;;
9657;SDS011;4867;48.112;11.622;2022-07-11T11:36:54;3.43;;;1.10;;
9657;SDS011;4867;48.112;11.622;2022-07-11T11:39:30;0.87;;;0.87;;
9657;SDS011;4867;48.112;11.622;2022-07-11T11:42:05;0.90;;;0.90;;
9657;SDS011;4867;48.112;11.622;2022-07-11T11:44:34;1.63;;;0.93;;
9657;SDS011;4867;48.112;11.622;2022-07-11T11:47:12;0.70;;;0.70;;
9657;SDS011;4867;48.112;11.622;2022-07-11T11:49:44;1.10;;;0.97;;
9657;SDS011;4867;48.112;11.622;2022-07-11T11:52:13;1.00;;;0.90;;
9657;SDS011;4867;48.112;11.622;2022-07-11T11:54:40;2.17;;;1.10;;
9657;SDS011;4867;48.112;11.622;2022-07-11T11:57:08;2.40;;;1.00;;
9657;SDS011;4867;48.112;11.622;2022-07-11T11:59:39;1.97;;;1.00;;
9657;SDS011;4867;48.112;11.622;2022-07-11T12:02:08;1.30;;;0.93;;
9657;SDS011;4867;48.112;11.622;2022-07-11T12:04:36;2.30;;;1.00;;
9657;SDS011;4867;48.112;11.622;2022-07-11T12:07:04;1.87;;;1.10;;
9657;SDS011;4867;48.112;11.622;2022-07-11T12:09:31;1.20;;;1.10;;
9657;SDS011;4867;48.112;11.622;2022-07-11T12:12:17;1.50;;;1.07;;
9657;SDS011;4867;48.112;11.622;2022-07-11T12:15:04;2.33;;;1.37;;
9657;SDS011;4867;48.112;11.622;2022-07-11T12:17:33;2.40;;;1.00;;
9657;SDS011;4867;48.112;11.622;2022-07-11T12:20:02;2.10;;;1.10;;
9657;SDS011;4867;48.112;11.622;2022-07-11T12:22:29;1.70;;;1.13;;
9657;SDS011;4867;48.112;11.622;2022-07-11T12:24:55;3.03;;;1.13;;
9657;SDS011;4867;48.112;11.622;2022-07-11T12:27:24;1.10;;;1.00;;
9657;SDS011;4867;48.112;11.622;2022-07-11T12:29:52;3.03;;;1.17;;
9657;SDS011;4867;48.112;11.622;2022-07-11T12:32:19;1.50;;;1.10;;
9657;SDS011;4867;48.112;11.622;2022-07-11T12:34:48;2.17;;;1.10;;
9657;SDS011;4867;48.112;11.622;2022-07-11T12:37:24;3.30;;;1.30;;
9657;SDS011;4867;48.112;11.622;2022-07-11T12:39:54;2.03;;;1.40;;
9657;SDS011;4867;48.112;11.622;2022-07-11T12:42:30;1.87;;;1.40;;
9657;SDS011;4867;48.112;11.622;2022-07-11T12:44:59;2.70;;;1.30;;
9657;SDS011;4867;48.112;11.622;2022-07-11T12:47:38;1.30;;;1.20;;
9657;SDS011;4867;48.112;11.622;2022-07-11T12:50:16;2.60;;;1.10;;
9657;SDS011;4867;48.112;11.622;2022-07-11T12:52:44;3.30;;;1.30;;
9657;SDS011;4867;48.112;11.622;2022-07-11T12:55:20;1.53;;;1.27;;
9657;SDS011;4867;48.112;11.622;2022-07-11T13:00:32;2.60;;;1.30;;
9657;SDS011;4867;48.112;11.622;2022-07-11T13:03:03;1.37;;;1.10;;
9657;SDS011;4867;48.112;11.622;2022-07-11T13:05:51;2.47;;;1.23;;
9657;SDS011;4867;48.112;11.622;2022-07-11T13:08:31;1.37;;;1.20;;
9657;SDS011;4867;48.112;11.622;2022-07-11T13:11:12;1.30;;;1.20;;
9657;SDS011;4867;48.112;11.622;2022-07-11T13:13:47;2.53;;;1.30;;
9657;SDS011;4867;48.112;11.622;2022-07-11T13:16:15;1.70;;;1.27;;
9657;SDS011;4867;48.112;11.622;2022-07-11T13:18:43;2.83;;;1.40;;
9657;SDS011;4867;48.112;11.622;2022-07-11T13:21:12;1.58;;;1.20;;
9657;SDS011;4867;48.112;11.622;2022-07-11T13:23:40;1.50;;;1.15;;
9657;SDS011;4867;48.112;11.622;2022-07-11T13:26:07;1.30;;;1.20;;
9657;SDS011;4867;48.112;11.622;2022-07-11T13:28:35;1.70;;;1.20;;
9657;SDS011;4867;48.112;11.622;2022-07-11T13:31:03;2.43;;;1.20;;
9657;SDS011;4867;48.112;11.622;2022-07-11T13:33:40;1.40;;;1.30;;
9657;SDS011;4867;48.112;11.622;2022-07-11T13:36:08;1.67;;;1.10;;
9657;SDS011;4867;48.112;11.622;2022-07-11T13:38:35;1.20;;;1.10;;
9657;SDS011;4867;48.112;11.622;2022-07-11T13:41:02;3.00;;;1.00;;
9657;SDS011;4867;48.112;11.622;2022-07-11T13:43:31;1.00;;;1.00;;
9657;SDS011;4867;48.112;11.622;2022-07-11T13:45:58;1.20;;;1.10;;
9657;SDS011;4867;48.112;11.622;2022-07-11T13:48:25;1.30;;;1.20;;
9657;SDS011;4867;48.112;11.622;2022-07-11T13:50:52;2.90;;;1.20;;
9657;SDS011;4867;48.112;11.622;2022-07-11T13:53:19;1.40;;;1.00;;
9657;SDS011;4867;48.112;11.622;2022-07-11T13:55:46;2.40;;;1.10;;
9657;SDS011;4867;48.112;11.622;2022-07-11T13:58:13;1.37;;;1.00;;
9657;SDS011;4867;48.112;11.622;2022-07-11T14:00:56;1.40;;;1.30;;
9657;SDS011;4867;48.112;11.622;2022-07-11T14:03:24;3.00;;;1.40;;
9657;SDS011;4867;48.112;11.622;2022-07-11T14:05:51;1.50;;;1.20;;
9657;SDS011;4867;48.112;11.622;2022-07-11T14:08:19;1.37;;;1.23;;
9657;SDS011;4867;48.112;11.622;2022-07-11T14:10:46;1.87;;;1.37;;
9657;SDS011;4867;48.112;11.622;2022-07-11T14:13:14;1.90;;;1.23;;
9657;SDS011;4867;48.112;11.622;2022-07-11T14:15:41;1.07;;;1.00;;
9657;SDS011;4867;48.112;11.622;2022-07-11T14:18:08;1.50;;;1.33;;
9657;SDS011;4867;48.112;11.622;2022-07-11T14:20:35;1.63;;;1.20;;
9657;SDS011;4867;48.112;11.622;2022-07-11T14:23:02;1.77;;;1.20;;
9657;SDS011;4867;48.112;11.622;2022-07-11T14:25:29;2.30;;;1.30;;
9657;SDS011;4867;48.112;11.622;2022-07-11T14:27:56;2.07;;;1.17;;
9657;SDS011;4867;48.112;11.622;2022-07-11T14:30:23;1.43;;;1.20;;
9657;SDS011;4867;48.112;11.622;2022-07-11T14:32:51;3.05;;;1.25;;
9657;SDS011;4867;48.112;11.622;2022-07-11T14:35:18;1.20;;;1.10;;
9657;SDS011;4867;48.112;11.622;2022-07-11T14:37:45;1.20;;;1.10;;
9657;SDS011;4867;48.112;11.622;2022-07-11T14:40:12;1.30;;;1.20;;
9657;SDS011;4867;48.112;11.622;2022-07-11T14:42:39;1.27;;;1.10;;
9657;SDS011;4867;48.112;11.622;2022-07-11T14:45:08;1.70;;;1.20;;
9657;SDS011;4867;48.112;11.622;2022-07-11T14:47:36;1.60;;;1.20;;
9657;SDS011;4867;48.112;11.622;2022-07-11T14:50:04;1.63;;;1.30;;
9657;SDS011;4867;48.112;11.622;2022-07-11T14:52:32;1.70;;;1.40;;
9657;SDS011;4867;48.112;11.622;2022-07-11T14:54:59;4.50;;;1.47;;
9657;SDS011;4867;48.112;11.622;2022-07-11T14:57:26;2.00;;;1.27;;
9657;SDS011;4867;48.112;11.622;2022-07-11T14:59:53;1.40;;;1.30;;
9657;SDS011;4867;48.112;11.622;2022-07-11T15:02:20;2.23;;;1.30;;
9657;SDS011;4867;48.112;11.622;2022-07-11T15:05:06;1.40;;;1.30;;
9657;SDS011;4867;48.112;11.622;2022-07-11T15:07:33;1.40;;;1.10;;
9657;SDS011;4867;48.112;11.622;2022-07-11T15:10:19;3.23;;;1.33;;
9657;SDS011;4867;48.112;11.622;2022-07-11T15:13:13;2.80;;;1.20;;
9657;SDS011;4867;48.112;11.622;2022-07-11T15:15:40;1.30;;;1.20;;
9657;SDS011;4867;48.112;11.622;2022-07-11T15:18:06;1.30;;;1.20;;
9657;SDS011;4867;48.112;11.622;2022-07-11T15:20:34;1.73;;;1.20;;
9657;SDS011;4867;48.112;11.622;2022-07-11T15:23:01;1.40;;;1.20;;
9657;SDS011;4867;48.112;11.622;2022-07-11T15:25:28;1.43;;;1.30;;
9657;SDS011;4867;48.112;11.622;2022-07-11T15:27:54;1.30;;;1.20;;
9657;SDS011;4867;48.112;11.622;2022-07-11T15:30:22;1.83;;;1.20;;
9657;SDS011;4867;48.112;11.622;2022-07-11T15:32:49;2.83;;;1.30;;
9657;SDS011;4867;48.112;11.622;2022-07-11T15:35:16;1.50;;;1.40;;
9657;SDS011;4867;48.112;11.622;2022-07-11T15:37:43;1.20;;;1.10;;
9657;SDS011;4867;48.112;11.622;2022-07-11T15:40:10;1.60;;;1.30;;
9657;SDS011;4867;48.112;11.622;2022-07-11T15:42:38;1.30;;;1.20;;
9657;SDS011;4867;48.112;11.622;2022-07-11T15:45:05;1.30;;;1.20;;
9657;SDS011;4867;48.112;11.622;2022-07-11T15:47:34;2.83;;;1.10;;
9657;SDS011;4867;48.112;11.622;2022-07-11T15:50:01;3.77;;;1.30;;